createdAt,value
2022-08-19T00:02:13.927Z,80.54
2022-08-19T00:04:42.833Z,80.50
2022-08-19T00:07:11.822Z,80.69
2022-08-19T00:09:54.704Z,80.94
2022-08-19T00:12:27.930Z,81.02
2022-08-19T00:14:57.375Z,81.30
2022-08-19T00:17:26.463Z,81.49
2022-08-19T00:19:55.525Z,81.58
2022-08-19T00:22:24.672Z,81.79
2022-08-19T00:24:56.730Z,81.99
2022-08-19T00:27:26.975Z,81.92
2022-08-19T00:30:02.191Z,82.07
2022-08-19T00:32:41.325Z,82.34
2022-08-19T00:35:12.721Z,82.64
2022-08-19T00:37:51.712Z,82.83
2022-08-19T00:40:29.706Z,82.74
2022-08-19T00:43:00.124Z,82.77
2022-08-19T00:45:36.645Z,82.95
2022-08-19T00:48:06.888Z,82.90
2022-08-19T00:50:51.961Z,83.15
2022-08-19T00:53:30.029Z,83.19
2022-08-19T00:56:04.716Z,83.29
2022-08-19T00:58:37.822Z,83.47
2022-08-19T01:01:09.534Z,83.55
2022-08-19T01:03:57.794Z,83.79
2022-08-19T01:09:47.681Z,83.36
2022-08-19T01:12:24.783Z,83.35
2022-08-19T01:15:00.337Z,83.64
2022-08-19T01:17:49.532Z,83.65
2022-08-19T01:20:31.434Z,83.74
2022-08-19T01:23:45.259Z,83.43
2022-08-19T01:26:22.858Z,83.89
2022-08-19T01:29:07.624Z,83.78
2022-08-19T01:31:40.158Z,83.91
2022-08-19T01:34:16.748Z,84.00
2022-08-19T01:37:13.944Z,83.74
2022-08-19T01:40:02.377Z,84.04
2022-08-19T01:42:37.023Z,84.04
2022-08-19T01:45:09.037Z,84.26
2022-08-19T01:47:59.090Z,84.74
2022-08-19T01:50:41.182Z,84.77
2022-08-19T01:53:14.925Z,84.84
2022-08-19T01:55:45.770Z,84.86
2022-08-19T01:58:26.178Z,84.78
2022-08-19T02:00:58.553Z,84.82
2022-08-19T02:03:32.118Z,84.90
2022-08-19T02:06:10.367Z,84.69
2022-08-19T02:09:19.686Z,84.64
2022-08-19T02:12:37.210Z,84.37
2022-08-19T02:18:54.621Z,84.22
2022-08-19T02:21:26.343Z,84.16
2022-08-19T02:23:55.998Z,84.31
2022-08-19T02:26:45.583Z,84.09
2022-08-19T02:29:22.258Z,83.99
2022-08-19T02:31:52.209Z,83.84
2022-08-19T02:37:57.231Z,83.73
2022-08-19T02:40:34.444Z,83.74
2022-08-19T02:43:08.377Z,83.61
2022-08-19T02:45:47.992Z,83.61
2022-08-19T02:48:27.841Z,83.58
2022-08-19T02:51:22.813Z,83.49
2022-08-19T02:54:00.527Z,83.68
2022-08-19T02:56:38.820Z,83.75
2022-08-19T02:59:08.986Z,83.48
2022-08-19T03:05:56.768Z,83.62
2022-08-19T03:09:09.480Z,83.90
2022-08-19T03:11:52.651Z,83.87
2022-08-19T03:15:26.510Z,83.83
2022-08-19T03:18:32.360Z,83.83
2022-08-19T03:21:52.863Z,83.85
2022-08-19T03:28:37.788Z,84.06
2022-08-19T03:35:06.871Z,83.99
2022-08-19T03:38:11.162Z,83.87
2022-08-19T03:41:45.651Z,84.15
2022-08-19T03:44:27.504Z,84.10
2022-08-19T03:48:12.184Z,84.30
2022-08-19T03:51:30.827Z,84.04
2022-08-19T03:54:13.071Z,84.06
2022-08-19T03:56:57.474Z,84.13
2022-08-19T03:59:47.152Z,84.17
2022-08-19T04:02:58.621Z,83.84
2022-08-19T04:05:32.110Z,84.09
2022-08-19T04:08:28.398Z,84.18
2022-08-19T04:11:21.031Z,83.95
2022-08-19T04:13:51.609Z,84.14
2022-08-19T04:19:20.782Z,83.98
2022-08-19T04:21:53.353Z,83.86
2022-08-19T04:24:27.059Z,83.50
2022-08-19T04:27:01.003Z,83.29
2022-08-19T04:29:32.071Z,83.12
2022-08-19T04:32:27.364Z,82.73
2022-08-19T04:35:01.407Z,82.62
2022-08-19T04:37:45.099Z,82.42
2022-08-19T04:40:39.472Z,82.05
2022-08-19T04:43:09.186Z,81.81
2022-08-19T04:45:43.526Z,81.55
2022-08-19T04:48:26.222Z,81.23
2022-08-19T04:51:07.407Z,81.30
2022-08-19T04:53:41.240Z,80.30
2022-08-19T04:56:14.597Z,79.66
2022-08-19T04:59:15.228Z,79.40
2022-08-19T05:01:44.449Z,78.81
2022-08-19T05:04:13.579Z,78.63
2022-08-19T05:06:43.599Z,78.49
2022-08-19T05:09:12.237Z,78.18
2022-08-19T05:11:40.786Z,78.24
2022-08-19T05:14:12.919Z,78.05
2022-08-19T05:16:42.194Z,77.89
2022-08-19T05:19:29.441Z,77.60
2022-08-19T05:22:20.917Z,77.85
2022-08-19T05:25:11.166Z,77.66
2022-08-19T05:27:38.065Z,77.30
2022-08-19T05:30:08.957Z,77.25
2022-08-19T05:32:37.693Z,77.37
2022-08-19T05:35:08.561Z,77.09
2022-08-19T05:37:37.253Z,76.51
2022-08-19T05:40:07.426Z,76.21
2022-08-19T05:42:36.162Z,75.70
2022-08-19T05:45:06.438Z,75.15
2022-08-19T05:47:36.097Z,74.93
2022-08-19T05:50:11.151Z,74.87
2022-08-19T05:52:43.783Z,75.00
2022-08-19T05:55:20.787Z,75.04
2022-08-19T05:57:50.478Z,74.93
2022-08-19T06:00:22.736Z,75.18
2022-08-19T06:02:55.133Z,75.38
2022-08-19T06:05:24.161Z,75.01
2022-08-19T06:07:52.795Z,74.65
2022-08-19T06:10:22.159Z,74.29
2022-08-19T06:12:50.821Z,73.96
2022-08-19T06:15:19.452Z,73.74
2022-08-19T06:17:48.056Z,73.39
2022-08-19T06:20:20.290Z,73.66
2022-08-19T06:22:59.595Z,74.01
2022-08-19T06:25:30.525Z,73.32
2022-08-19T06:28:14.569Z,73.15
2022-08-19T06:30:43.889Z,73.03
2022-08-19T06:33:12.448Z,72.93
2022-08-19T06:35:42.604Z,72.70
2022-08-19T06:38:11.539Z,72.85
2022-08-19T06:40:40.184Z,72.84
2022-08-19T06:43:09.558Z,72.77
2022-08-19T06:45:39.550Z,72.55
2022-08-19T06:48:08.457Z,73.09
2022-08-19T06:50:39.700Z,72.80
2022-08-19T06:53:09.694Z,72.50
2022-08-19T06:55:38.380Z,72.52
2022-08-19T06:58:07.167Z,71.94
2022-08-19T07:00:35.805Z,71.71
2022-08-19T07:03:08.606Z,71.75
2022-08-19T07:05:45.265Z,72.33
2022-08-19T07:08:14.765Z,70.99
2022-08-19T07:10:46.012Z,70.30
2022-08-19T07:13:14.679Z,70.23
2022-08-19T07:15:43.847Z,70.41
2022-08-19T07:18:12.675Z,69.31
2022-08-19T07:20:43.614Z,69.74
2022-08-19T07:23:16.507Z,68.92
2022-08-19T07:25:52.938Z,68.91
2022-08-19T07:28:24.136Z,68.30
2022-08-19T07:30:53.940Z,68.14
2022-08-19T07:33:24.142Z,67.64
2022-08-19T07:35:57.138Z,67.21
2022-08-19T07:38:26.126Z,67.00
2022-08-19T07:40:55.942Z,66.34
2022-08-19T07:43:25.656Z,66.69
2022-08-19T07:46:03.996Z,66.30
2022-08-19T07:48:33.119Z,66.13
2022-08-19T07:51:07.279Z,66.13
2022-08-19T07:53:39.797Z,65.61
2022-08-19T07:56:09.724Z,65.96
2022-08-19T07:58:41.940Z,65.60
2022-08-19T08:01:13.906Z,65.21
2022-08-19T08:04:01.910Z,65.70
2022-08-19T08:06:49.368Z,64.75
2022-08-19T08:09:23.903Z,65.26
2022-08-19T08:11:57.719Z,65.33
2022-08-19T08:14:35.133Z,64.74
2022-08-19T08:17:03.993Z,65.86
2022-08-19T08:19:42.164Z,64.72
2022-08-19T08:22:33.629Z,64.46
2022-08-19T08:25:06.979Z,63.93
2022-08-19T08:27:40.011Z,64.04
2022-08-19T08:30:14.925Z,64.67
2022-08-19T08:32:44.729Z,63.92
2022-08-19T08:35:18.328Z,62.99
2022-08-19T08:37:51.364Z,62.57
2022-08-19T08:40:22.504Z,63.88
2022-08-19T08:42:56.266Z,62.91
2022-08-19T08:45:26.095Z,61.61
2022-08-19T08:47:59.392Z,60.86
2022-08-19T08:50:36.168Z,59.93
2022-08-19T08:53:09.428Z,57.83
2022-08-19T08:55:39.545Z,56.24
2022-08-19T08:58:16.373Z,56.45
2022-08-19T09:00:47.697Z,54.11
2022-08-19T09:03:20.508Z,53.40
2022-08-19T09:05:59.991Z,52.85
2022-08-19T09:08:40.388Z,52.18
2022-08-19T09:11:42.870Z,49.84
2022-08-19T09:14:47.392Z,49.77
2022-08-19T09:17:10.716Z,48.64
2022-08-19T09:19:52.471Z,48.62
2022-08-19T09:22:25.584Z,48.45
2022-08-19T09:24:56.131Z,47.46
2022-08-19T09:27:42.440Z,47.41
2022-08-19T09:30:18.205Z,47.00
2022-08-19T09:32:47.323Z,46.77
2022-08-19T09:35:23.797Z,46.47
2022-08-19T09:37:57.331Z,46.25
2022-08-19T09:40:28.014Z,44.88
2022-08-19T09:43:03.337Z,45.14
2022-08-19T09:45:38.826Z,44.44
2022-08-19T09:48:09.599Z,43.90
2022-08-19T09:50:51.927Z,43.86
2022-08-19T09:53:23.000Z,43.97
2022-08-19T09:55:56.984Z,44.64
2022-08-19T09:58:28.528Z,44.80
2022-08-19T10:01:43.515Z,45.35
2022-08-19T10:04:20.155Z,44.78
2022-08-19T10:06:56.865Z,44.22
2022-08-19T10:12:37.387Z,44.57
2022-08-19T10:15:13.878Z,44.92
2022-08-19T10:17:48.207Z,44.52
2022-08-19T10:20:24.388Z,43.40
2022-08-19T10:22:57.166Z,42.65
2022-08-19T10:25:38.446Z,42.96
2022-08-19T10:28:19.419Z,41.95
2022-08-19T10:32:00.737Z,41.56
2022-08-19T10:34:04.484Z,42.57
2022-08-19T10:36:56.089Z,42.35
2022-08-19T10:39:59.805Z,41.45
2022-08-19T10:42:48.866Z,42.18
2022-08-19T10:45:39.211Z,42.56
2022-08-19T10:48:46.747Z,42.01
2022-08-19T10:51:48.036Z,41.53
2022-08-19T10:54:28.772Z,41.28
2022-08-19T10:57:00.832Z,41.61
2022-08-19T10:59:35.308Z,41.34
2022-08-19T11:02:07.379Z,41.66
2022-08-19T14:09:03.963Z,42.28
2022-08-19T14:11:37.923Z,41.91
2022-08-19T14:18:14.722Z,42.23
2022-08-19T14:20:51.215Z,42.67
2022-08-19T14:23:29.958Z,42.60
2022-08-19T14:29:38.767Z,42.54
2022-08-19T14:32:22.813Z,42.83
2022-08-19T14:39:20.512Z,43.38
2022-08-19T14:41:51.076Z,43.15
2022-08-19T14:51:32.024Z,43.59
2022-08-19T14:54:21.282Z,44.03
2022-08-19T14:57:15.410Z,43.99
2022-08-19T15:00:07.059Z,43.68
2022-08-19T15:03:06.220Z,44.23
2022-08-19T15:05:36.264Z,44.05
2022-08-19T15:11:16.469Z,44.28
2022-08-19T15:13:54.338Z,44.44
2022-08-19T15:16:45.478Z,44.21
2022-08-19T15:20:00.240Z,44.32
2022-08-19T15:22:38.071Z,43.70
2022-08-19T15:25:19.554Z,43.54
2022-08-19T15:27:48.757Z,44.01
2022-08-19T15:30:23.071Z,44.23
2022-08-19T15:33:10.514Z,44.28
2022-08-19T15:36:02.747Z,44.72
2022-08-19T15:38:38.473Z,43.94
2022-08-19T15:41:24.666Z,44.01
2022-08-19T15:43:56.468Z,43.99
2022-08-19T15:46:28.878Z,45.05
2022-08-19T15:49:00.002Z,44.64
2022-08-19T15:51:31.774Z,44.70
2022-08-19T15:54:01.622Z,44.78
2022-08-19T15:56:45.055Z,45.10
2022-08-19T15:59:32.576Z,45.78
2022-08-19T16:02:32.310Z,45.39
2022-08-19T16:05:19.783Z,45.55
2022-08-19T16:07:48.592Z,45.85
2022-08-19T16:10:26.377Z,45.95
2022-08-19T16:12:57.937Z,45.64
2022-08-19T16:15:28.092Z,45.99
2022-08-19T16:17:58.082Z,46.42
2022-08-19T16:20:27.428Z,46.59
2022-08-19T16:22:57.897Z,46.73
2022-08-19T16:25:29.669Z,46.61
2022-08-19T16:28:07.023Z,46.65
2022-08-19T16:30:39.460Z,47.01
2022-08-19T16:33:09.376Z,47.29
2022-08-19T16:35:38.430Z,47.18
2022-08-19T16:38:07.397Z,47.61
2022-08-19T16:40:38.500Z,47.59
2022-08-19T16:43:09.536Z,48.09
2022-08-19T16:45:38.164Z,48.40
2022-08-19T16:48:12.674Z,48.18
2022-08-19T16:50:49.293Z,48.75
2022-08-19T16:53:21.396Z,48.42
2022-08-19T16:55:53.577Z,48.62
2022-08-19T16:58:28.775Z,48.96
2022-08-19T17:01:02.068Z,49.65
2022-08-19T17:03:36.327Z,49.61
2022-08-19T17:06:17.782Z,48.66
2022-08-19T17:08:51.577Z,49.81
2022-08-19T17:11:21.617Z,50.02
2022-08-19T17:13:51.538Z,50.39
2022-08-19T17:16:24.021Z,50.56
2022-08-19T17:18:53.381Z,50.70
2022-08-19T17:21:27.389Z,50.76
2022-08-19T17:23:57.013Z,50.86
2022-08-19T17:26:29.780Z,51.13
2022-08-19T17:28:59.809Z,51.38
2022-08-19T17:31:30.779Z,51.40
2022-08-19T17:34:00.279Z,51.33
2022-08-19T17:36:31.344Z,51.56
2022-08-19T17:39:01.473Z,51.61
2022-08-19T17:41:33.476Z,51.71
2022-08-19T17:44:02.835Z,51.74
2022-08-19T17:46:31.927Z,52.25
2022-08-19T17:49:00.770Z,52.66
2022-08-19T17:51:42.878Z,52.70
2022-08-19T17:54:15.238Z,52.75
2022-08-19T17:56:44.749Z,52.90
2022-08-19T17:59:14.502Z,53.13
2022-08-19T18:01:53.456Z,53.59
2022-08-19T18:04:25.209Z,53.62
2022-08-19T18:06:55.321Z,54.08
2022-08-19T18:09:26.666Z,54.05
2022-08-19T18:12:00.519Z,54.15
2022-08-19T18:14:34.210Z,54.40
2022-08-19T18:17:08.648Z,54.85
2022-08-19T18:19:41.855Z,54.86
2022-08-19T18:22:13.527Z,55.47
2022-08-19T18:24:42.721Z,55.22
2022-08-19T18:27:14.857Z,55.37
2022-08-19T18:29:43.913Z,55.80
2022-08-19T18:32:15.650Z,55.81
2022-08-19T18:34:45.705Z,55.93
2022-08-19T18:37:14.217Z,56.50
2022-08-19T18:40:01.185Z,56.44
2022-08-19T18:42:48.273Z,56.63
2022-08-19T18:45:35.287Z,56.90
2022-08-19T18:48:27.259Z,56.90
2022-08-19T18:50:59.465Z,56.87
2022-08-19T18:53:31.307Z,57.11
2022-08-19T18:56:00.319Z,57.31
2022-08-19T18:58:33.259Z,57.30
2022-08-19T19:01:10.043Z,57.52
2022-08-19T19:03:42.356Z,57.72
2022-08-19T19:06:11.381Z,57.99
2022-08-19T19:08:40.255Z,57.92
2022-08-19T19:11:11.222Z,57.99
2022-08-19T19:13:40.415Z,58.05
2022-08-19T19:16:10.941Z,58.44
2022-08-19T19:18:39.881Z,58.34
2022-08-19T19:21:09.239Z,58.67
2022-08-19T19:23:40.358Z,58.55
2022-08-19T19:26:10.103Z,58.83
2022-08-19T19:28:43.147Z,58.84
2022-08-19T19:31:14.458Z,58.99
2022-08-19T19:33:44.329Z,59.13
2022-08-19T19:36:13.375Z,59.34
2022-08-19T19:38:48.276Z,59.72
2022-08-19T19:41:22.772Z,59.93
2022-08-19T19:44:04.827Z,60.43
2022-08-19T19:46:42.476Z,60.25
2022-08-19T19:49:11.895Z,60.74
2022-08-19T19:51:41.687Z,60.67
2022-08-19T19:54:13.463Z,60.74
2022-08-19T19:56:44.891Z,61.03
2022-08-19T19:59:13.466Z,61.05
2022-08-19T20:01:45.751Z,61.16
2022-08-19T20:04:15.588Z,61.33
2022-08-19T20:06:45.837Z,61.47
2022-08-19T20:09:19.703Z,61.57
2022-08-19T20:11:53.524Z,61.70
2022-08-19T20:14:25.328Z,61.95
2022-08-19T20:16:55.444Z,62.20
2022-08-19T20:19:27.245Z,62.10
2022-08-19T20:21:56.898Z,62.43
2022-08-19T20:24:27.430Z,62.29
2022-08-19T20:26:56.135Z,62.40
2022-08-19T20:29:38.049Z,62.87
2022-08-19T20:32:09.143Z,62.70
2022-08-19T20:34:37.701Z,62.70
2022-08-19T20:37:08.569Z,62.97
2022-08-19T20:39:37.561Z,62.91
2022-08-19T20:42:06.658Z,63.07
2022-08-19T20:44:37.183Z,63.33
2022-08-19T20:47:06.171Z,63.24
2022-08-19T20:49:35.495Z,63.50
2022-08-19T20:52:05.867Z,63.19
2022-08-19T20:54:35.088Z,63.19
2022-08-19T20:57:04.937Z,63.24
2022-08-19T20:59:34.074Z,62.98
2022-08-19T21:02:02.839Z,63.12
2022-08-19T21:04:32.515Z,63.55
2022-08-19T21:07:01.626Z,63.30
2022-08-19T21:09:30.604Z,63.15
2022-08-19T21:11:59.220Z,63.36
2022-08-19T21:14:27.830Z,63.31
2022-08-19T21:16:56.331Z,63.43
2022-08-19T21:19:24.900Z,63.54
2022-08-19T21:21:53.481Z,63.33
2022-08-19T21:24:26.445Z,63.39
2022-08-19T21:27:00.416Z,63.71
2022-08-19T21:29:31.474Z,63.53
2022-08-19T21:32:00.025Z,63.85
2022-08-19T21:34:28.794Z,63.45
2022-08-19T21:36:57.312Z,63.53
2022-08-19T21:39:26.007Z,63.49
2022-08-19T21:41:54.545Z,63.68
2022-08-19T21:44:23.028Z,63.53
2022-08-19T21:46:51.779Z,63.93
2022-08-19T21:49:20.889Z,63.75
2022-08-19T21:51:49.529Z,63.65
2022-08-19T21:54:18.221Z,63.74
2022-08-19T21:56:47.186Z,63.66
2022-08-19T21:59:16.379Z,63.88
2022-08-19T22:01:50.463Z,63.89
2022-08-19T22:04:22.629Z,63.79
2022-08-19T22:06:51.949Z,63.87
2022-08-19T22:09:20.496Z,63.90
2022-08-19T22:11:49.059Z,63.91
2022-08-19T22:14:17.601Z,64.16
2022-08-19T22:16:46.840Z,64.04
2022-08-19T22:19:15.490Z,63.97
2022-08-19T22:21:44.024Z,64.29
2022-08-19T22:24:12.562Z,64.28
2022-08-19T22:26:41.079Z,64.70
2022-08-19T22:29:10.207Z,64.40
2022-08-19T22:31:38.928Z,64.76
2022-08-19T22:34:10.033Z,64.92
2022-08-19T22:36:38.719Z,65.15
2022-08-19T22:39:08.642Z,65.11
2022-08-19T22:41:40.334Z,65.18
2022-08-19T22:44:11.108Z,65.52
2022-08-19T22:46:39.710Z,65.54
2022-08-19T22:49:08.456Z,65.69
2022-08-19T22:51:55.455Z,66.08
2022-08-19T22:54:23.938Z,65.83
2022-08-19T22:56:52.906Z,66.34
2022-08-19T22:59:21.970Z,66.09
2022-08-19T23:01:50.918Z,65.86
2022-08-19T23:04:19.440Z,66.57
2022-08-19T23:06:47.935Z,66.69
2022-08-19T23:09:17.169Z,66.97
2022-08-19T23:11:47.414Z,67.25
2022-08-19T23:14:18.467Z,67.69
2022-08-19T23:16:51.269Z,66.58
2022-08-19T23:19:21.670Z,67.14
2022-08-19T23:21:52.300Z,67.78
2022-08-19T23:24:20.910Z,67.78
2022-08-19T23:27:08.642Z,67.74
2022-08-19T23:29:55.396Z,67.80
2022-08-19T23:32:25.166Z,67.72
2022-08-19T23:34:56.339Z,67.71
2022-08-19T23:37:24.937Z,68.39
2022-08-19T23:39:53.552Z,69.13
2022-08-19T23:42:23.080Z,68.64
2022-08-19T23:44:52.922Z,68.43
2022-08-19T23:47:22.884Z,68.78
2022-08-19T23:49:51.468Z,69.06
2022-08-19T23:52:20.362Z,69.36
2022-08-19T23:54:48.884Z,68.93
2022-08-19T23:57:17.426Z,69.31
2022-08-19T23:59:46.125Z,69.32
